Swift Current Airport, Saskatchewan

Past 24 Hour Conditions

This table is a summary of hourly weather conditions for the past 24 hours. This summary includes the following parameters: temperature, humidity, dew point, wind speed and direction, air pressure, visibility and/or wind chill and humidex.
Date / Time
(CST)
Conditions Temp (°F) Humidity (%) Dew Point (°F) Wind (mph) Pressure (inches) Vis (mi) Humidex
21 August 2014
2:00 Mist 58 97 57 W 7 29.9 4 *
1:00 Light Rain 58 96 57 W 8 29.9 4 *
00:00 Light Rain 60 88 57 SW 8 29.9 10 *
20 August 2014
23:00 Cloudy 62 79 55 W 8 29.9 10 *
22:00 Mostly Cloudy 63 75 55 ENE 3 29.9 10 *
21:00 Mostly Cloudy 65 61 51 NNE 9 gust 17 29.9 10 *
20:00 Sunny 66 55 50 N 9 29.8 10 *
19:00 Sunny 71 49 51 N 13 29.8 10 *
18:00 Mostly Cloudy 73 41 48 NNW 9 29.8 10 *
17:00 Mostly Cloudy 74 47 52 NNW 15 29.8 10 77
16:00 Mostly Cloudy 75   46 53 N 8 29.8 10 78
15:00 Partly Cloudy 73 51 54 NNW 13 gust 21 29.7 10 78
14:00 Partly Cloudy 74 43 51 NNW 13 gust 22 29.7 10 77
13:00 Partly Cloudy 72 51 53 NW 13 gust 18 29.7 10 76
12:00 Partly Cloudy 71 57 55 NW 14 gust 21 29.7 10 *
11:00 Mainly Sunny 70 60 56 NNW 16 29.7 10 *
10:00 Mainly Sunny 69 68 58 N 11 gust 17 29.7 10 *
9:00 Cloudy 64 85 59 NW 10 29.7 10 *
8:00 Cloudy 60 93 58 WNW 11 29.7 10 *
7:00 Partly Cloudy 58 95 57 WNW 9 29.7 10 *
6:00 Cloudy 57 96 56 WNW 8 29.7 10 *
5:00 Clear 55   94 54 W 8 29.6 10 *
4:00 Clear 58 87 54 N 6 29.6 10 *
3:00 Clear 59 87 55 N 5 29.6 10 *
2:00 Partly Cloudy 62 83 57 NNW 16 gust 23 29.6 10 *
N/A
Not available
 ↑ 
Highest temperature
 ↓ 
Lowest temperature
*
Value not significant.

If you require additional historical weather information, please visit Climate Data Online.